createdAt,value
2018-09-17T00:00:12.953Z,13.50
2018-09-17T00:02:41.324Z,13.50
2018-09-17T00:05:09.666Z,13.60
2018-09-17T00:07:38.040Z,13.50
2018-09-17T00:10:06.428Z,13.60
2018-09-17T00:12:34.821Z,13.50
2018-09-17T00:15:03.180Z,13.50
2018-09-17T00:17:31.560Z,13.50
2018-09-17T00:20:00.136Z,13.50
2018-09-17T00:22:28.689Z,13.60
2018-09-17T00:24:57.060Z,13.50
2018-09-17T00:27:25.439Z,13.60
2018-09-17T00:29:53.780Z,13.60
2018-09-17T00:32:22.452Z,13.70
2018-09-17T00:34:50.812Z,13.60
2018-09-17T00:37:19.144Z,13.70
2018-09-17T00:39:47.507Z,13.70
2018-09-17T00:42:15.850Z,13.70
2018-09-17T00:44:44.228Z,13.70
2018-09-17T00:47:12.592Z,13.70
2018-09-17T00:49:40.964Z,13.70
2018-09-17T00:52:09.300Z,13.80
2018-09-17T00:54:37.708Z,13.80
2018-09-17T00:57:06.076Z,13.70
2018-09-17T00:59:34.453Z,13.70
2018-09-17T01:02:02.790Z,13.70
2018-09-17T01:04:31.260Z,13.70
2018-09-17T01:06:59.604Z,13.70
2018-09-17T01:09:33.362Z,13.70
2018-09-17T01:12:01.697Z,13.70
2018-09-17T01:14:30.084Z,13.70
2018-09-17T01:16:58.444Z,13.70
2018-09-17T01:19:26.819Z,13.60
2018-09-17T01:21:55.196Z,13.60
2018-09-17T01:24:23.576Z,13.60
2018-09-17T01:26:51.915Z,13.60
2018-09-17T01:29:20.290Z,13.60
2018-09-17T01:31:48.631Z,13.60
2018-09-17T01:34:17.006Z,13.60
2018-09-17T01:36:45.360Z,13.50
2018-09-17T01:39:13.755Z,13.50
2018-09-17T01:41:42.177Z,13.50
2018-09-17T01:44:10.564Z,13.50
2018-09-17T01:46:38.924Z,13.40
2018-09-17T01:49:07.312Z,13.40
2018-09-17T01:51:35.668Z,13.40
2018-09-17T01:54:04.057Z,13.40
2018-09-17T01:56:32.417Z,13.40
2018-09-17T01:59:00.824Z,13.40
2018-09-17T02:01:29.284Z,13.40
2018-09-17T02:03:57.783Z,13.40
2018-09-17T02:06:26.128Z,13.40
2018-09-17T02:08:54.608Z,13.40
2018-09-17T02:11:22.897Z,13.40
2018-09-17T02:13:51.304Z,13.40
2018-09-17T02:16:19.654Z,13.40
2018-09-17T02:18:48.075Z,13.30
2018-09-17T02:21:16.404Z,13.30
2018-09-17T02:23:44.764Z,13.30
2018-09-17T02:26:13.420Z,13.30
2018-09-17T02:28:41.780Z,13.20
2018-09-17T02:31:10.152Z,13.20
2018-09-17T02:33:38.513Z,13.20
2018-09-17T02:36:06.908Z,13.20
2018-09-17T02:38:35.261Z,13.10
2018-09-17T02:41:03.644Z,13.10
2018-09-17T02:43:31.987Z,13.10
2018-09-17T02:46:00.381Z,13.10
2018-09-17T02:48:28.732Z,13.00
2018-09-17T02:50:57.112Z,13.00
2018-09-17T02:53:25.513Z,13.00
2018-09-17T02:55:53.900Z,12.90
2018-09-17T02:58:22.257Z,13.00
2018-09-17T03:00:50.626Z,13.00
2018-09-17T03:03:18.969Z,12.90
2018-09-17T03:05:47.411Z,13.00
2018-09-17T03:08:15.772Z,13.00
2018-09-17T03:10:44.159Z,12.90
2018-09-17T03:13:12.555Z,12.90
2018-09-17T03:15:50.641Z,12.90
2018-09-17T03:18:31.081Z,12.90
2018-09-17T03:20:59.461Z,12.80
2018-09-17T03:23:27.812Z,12.80
2018-09-17T03:25:56.221Z,12.80
2018-09-17T03:28:25.000Z,12.70
2018-09-17T03:30:53.620Z,12.70
2018-09-17T03:33:21.945Z,12.70
2018-09-17T03:35:50.372Z,12.60
2018-09-17T03:38:33.975Z,12.60
2018-09-17T03:41:03.801Z,12.60
2018-09-17T03:43:32.802Z,12.60
2018-09-17T03:46:01.234Z,12.60
2018-09-17T03:48:30.597Z,12.60
2018-09-17T03:50:59.296Z,12.60
2018-09-17T03:53:27.721Z,12.60
2018-09-17T03:55:56.103Z,12.60
2018-09-17T03:58:24.444Z,12.60
2018-09-17T04:00:52.831Z,12.60
2018-09-17T04:03:21.212Z,12.60
2018-09-17T04:05:49.658Z,12.60
2018-09-17T04:08:18.125Z,12.50
2018-09-17T04:10:46.536Z,12.50
2018-09-17T04:13:14.918Z,12.50
2018-09-17T04:15:43.308Z,12.50
2018-09-17T04:18:11.673Z,12.50
2018-09-17T04:20:40.069Z,12.50
2018-09-17T04:23:08.573Z,12.50
2018-09-17T04:25:36.980Z,12.50
2018-09-17T04:28:05.453Z,12.40
2018-09-17T04:30:33.869Z,12.40
2018-09-17T04:33:03.186Z,12.40
2018-09-17T04:35:31.583Z,12.40
2018-09-17T04:37:59.971Z,12.40
2018-09-17T04:40:28.381Z,12.40
2018-09-17T04:42:56.756Z,12.40
2018-09-17T04:45:25.105Z,12.40
2018-09-17T04:47:53.484Z,12.30
2018-09-17T04:50:21.841Z,12.20
2018-09-17T04:52:50.217Z,12.20
2018-09-17T04:55:18.581Z,12.10
2018-09-17T04:57:46.936Z,12.10
2018-09-17T05:00:15.279Z,12.10
2018-09-17T05:02:43.645Z,12.10
2018-09-17T05:05:11.972Z,12.00
2018-09-17T05:07:40.329Z,12.10
2018-09-17T05:10:08.675Z,12.00
2018-09-17T05:12:37.051Z,12.00
2018-09-17T05:15:05.487Z,12.00
2018-09-17T05:17:33.853Z,12.00
2018-09-17T05:20:02.251Z,12.00
2018-09-17T05:22:30.624Z,12.00
2018-09-17T05:24:58.949Z,12.00
2018-09-17T05:27:27.341Z,12.00
2018-09-17T05:29:55.681Z,12.00
2018-09-17T05:32:24.076Z,12.00
2018-09-17T05:34:52.475Z,11.90
2018-09-17T05:37:20.864Z,11.90
2018-09-17T05:39:49.221Z,11.90
2018-09-17T05:42:17.693Z,11.90
2018-09-17T05:44:46.045Z,11.90
2018-09-17T05:47:14.436Z,11.90
2018-09-17T05:49:42.788Z,11.90
2018-09-17T05:52:11.164Z,12.00
2018-09-17T05:54:39.509Z,12.00
2018-09-17T05:57:07.880Z,12.00
2018-09-17T05:59:36.304Z,12.10
2018-09-17T06:02:04.664Z,12.10
2018-09-17T06:04:33.015Z,12.20
2018-09-17T06:07:01.458Z,12.20
2018-09-17T06:09:29.781Z,12.20
2018-09-17T06:11:58.190Z,12.30
2018-09-17T06:14:26.543Z,12.40
2018-09-17T06:16:54.932Z,12.40
2018-09-17T06:19:23.299Z,12.40
2018-09-17T06:21:51.656Z,12.50
2018-09-17T06:24:20.045Z,12.50
2018-09-17T06:26:48.401Z,12.60
2018-09-17T06:29:16.819Z,12.60
2018-09-17T06:31:45.244Z,12.70
2018-09-17T06:34:13.692Z,12.80
2018-09-17T06:36:42.021Z,12.90
2018-09-17T06:39:11.028Z,13.00
2018-09-17T06:41:39.378Z,13.00
2018-09-17T06:44:07.830Z,13.10
2018-09-17T06:46:36.180Z,13.20
2018-09-17T06:49:04.543Z,13.20
2018-09-17T06:51:32.907Z,13.30
2018-09-17T06:54:01.261Z,13.30
2018-09-17T06:56:29.597Z,13.60
2018-09-17T06:58:57.992Z,13.80
2018-09-17T07:01:26.320Z,13.90
2018-09-17T07:03:54.684Z,14.10
2018-09-17T07:06:23.017Z,14.20
2018-09-17T07:08:51.383Z,14.20
2018-09-17T07:11:19.898Z,14.30
2018-09-17T07:13:48.272Z,14.30
2018-09-17T07:16:16.672Z,14.40
2018-09-17T07:18:45.034Z,14.60
2018-09-17T07:21:13.364Z,14.70
2018-09-17T07:23:41.725Z,14.80
2018-09-17T07:26:10.096Z,14.90
2018-09-17T07:28:38.455Z,15.00
2018-09-17T07:31:06.908Z,15.10
2018-09-17T07:33:35.337Z,15.30
2018-09-17T07:36:03.674Z,15.40
2018-09-17T07:38:32.035Z,15.60
2018-09-17T07:41:07.018Z,15.80
2018-09-17T07:43:35.400Z,15.90
2018-09-17T07:46:03.819Z,16.10
2018-09-17T07:48:32.224Z,16.30
2018-09-17T07:51:00.572Z,16.60
2018-09-17T07:53:28.919Z,16.70
2018-09-17T07:55:57.312Z,16.90
2018-09-17T07:58:25.677Z,17.00
2018-09-17T08:00:54.068Z,17.10
2018-09-17T08:03:22.425Z,17.30
2018-09-17T08:05:50.795Z,17.50
2018-09-17T08:08:19.128Z,17.60
2018-09-17T08:10:47.500Z,17.90
2018-09-17T08:13:15.842Z,18.00
2018-09-17T08:15:44.209Z,18.00
2018-09-17T08:18:12.560Z,18.20
2018-09-17T08:20:40.965Z,18.40
2018-09-17T08:23:09.316Z,18.50
2018-09-17T08:25:37.712Z,18.60
2018-09-17T08:28:06.080Z,18.70
2018-09-17T08:30:34.475Z,18.90
2018-09-17T08:33:02.874Z,19.00
2018-09-17T08:35:31.261Z,19.20
2018-09-17T08:38:01.517Z,19.20
2018-09-17T08:40:29.924Z,19.40
2018-09-17T08:42:58.264Z,19.50
2018-09-17T08:45:26.651Z,19.40
2018-09-17T08:47:55.004Z,19.40
2018-09-17T08:50:23.384Z,19.40
2018-09-17T08:52:51.810Z,19.40
2018-09-17T08:55:25.316Z,19.50
2018-09-17T08:57:57.196Z,19.50
2018-09-17T09:00:30.893Z,19.70
2018-09-17T09:03:04.524Z,19.90
2018-09-17T09:05:39.115Z,20.10
2018-09-17T09:08:08.207Z,20.10
2018-09-17T09:10:42.641Z,20.30
2018-09-17T09:13:16.069Z,20.30
2018-09-17T09:15:44.760Z,20.50
2018-09-17T09:18:13.092Z,20.70
2018-09-17T09:20:41.536Z,20.70
2018-09-17T09:23:09.901Z,20.80
2018-09-17T09:25:38.297Z,20.90
2018-09-17T09:28:06.654Z,21.00
2018-09-17T09:30:35.032Z,21.10
2018-09-17T09:33:03.416Z,21.20
2018-09-17T09:35:31.848Z,21.30
2018-09-17T09:38:00.212Z,21.40
2018-09-17T09:40:28.602Z,21.50
2018-09-17T09:42:56.944Z,21.60
2018-09-17T09:45:25.340Z,21.60
2018-09-17T09:47:53.699Z,21.80
2018-09-17T09:50:22.092Z,21.80
2018-09-17T09:52:50.537Z,21.90
2018-09-17T09:55:18.874Z,21.90
2018-09-17T09:57:47.287Z,21.90
2018-09-17T10:00:20.968Z,21.80
2018-09-17T10:02:54.697Z,21.80
2018-09-17T10:05:23.064Z,21.70
2018-09-17T10:07:52.288Z,21.80
2018-09-17T10:10:25.892Z,22.00
2018-09-17T10:12:59.572Z,22.10
2018-09-17T10:15:40.004Z,22.30
2018-09-17T10:18:13.753Z,22.30
2018-09-17T10:20:42.102Z,22.40
2018-09-17T10:23:10.480Z,22.50
2018-09-17T10:25:38.840Z,22.70
2018-09-17T10:28:07.232Z,22.70
2018-09-17T10:30:35.571Z,22.70
2018-09-17T10:33:03.973Z,22.70
2018-09-17T10:35:32.317Z,22.70
2018-09-17T10:38:01.732Z,22.70
2018-09-17T10:40:30.072Z,22.70
2018-09-17T10:42:58.435Z,22.80
2018-09-17T10:45:26.759Z,22.90
2018-09-17T10:47:55.152Z,23.00
2018-09-17T10:50:23.496Z,23.00
2018-09-17T10:52:51.868Z,23.10
2018-09-17T10:55:20.206Z,23.20
2018-09-17T10:57:48.580Z,23.20
2018-09-17T11:00:16.925Z,23.30
2018-09-17T11:02:45.424Z,23.30
2018-09-17T11:05:14.193Z,23.30
2018-09-17T11:07:42.556Z,23.30
2018-09-17T11:10:10.970Z,23.30
2018-09-17T11:12:39.327Z,23.30
2018-09-17T11:15:07.672Z,23.40
2018-09-17T11:17:36.101Z,23.40
2018-09-17T11:20:04.469Z,23.30
2018-09-17T11:22:32.831Z,23.40
2018-09-17T11:25:01.216Z,23.40
2018-09-17T11:27:29.660Z,23.30
2018-09-17T11:29:57.993Z,23.30
2018-09-17T11:32:26.364Z,23.30
2018-09-17T11:34:54.924Z,23.30
2018-09-17T11:37:23.469Z,23.30
2018-09-17T11:39:51.812Z,23.30
2018-09-17T11:42:20.192Z,23.40
2018-09-17T11:44:48.558Z,23.50
2018-09-17T11:47:16.920Z,23.60
2018-09-17T11:49:45.300Z,23.60
2018-09-17T11:52:13.667Z,23.70
2018-09-17T11:54:42.035Z,23.80
2018-09-17T11:57:10.384Z,23.80
2018-09-17T11:59:38.776Z,23.80
2018-09-17T12:02:12.434Z,23.80
2018-09-17T12:04:46.129Z,24.00
2018-09-17T12:07:19.792Z,24.00
2018-09-17T12:09:48.173Z,24.10
2018-09-17T12:12:16.512Z,24.20
2018-09-17T12:14:44.899Z,24.30
2018-09-17T12:17:13.245Z,24.30
2018-09-17T12:19:41.656Z,24.30
2018-09-17T12:22:09.997Z,24.40
2018-09-17T12:24:38.440Z,24.30
2018-09-17T12:27:06.808Z,24.30
2018-09-17T12:29:35.187Z,24.20
2018-09-17T12:32:03.575Z,24.10
2018-09-17T12:34:31.980Z,24.00
2018-09-17T12:37:00.319Z,24.00
2018-09-17T12:39:28.699Z,24.00
2018-09-17T12:41:57.244Z,23.90
2018-09-17T12:44:25.636Z,23.90
2018-09-17T12:46:53.980Z,24.00
2018-09-17T12:49:22.364Z,24.00
2018-09-17T12:51:50.713Z,24.00
2018-09-17T12:54:19.084Z,24.00
2018-09-17T12:56:48.783Z,24.00
2018-09-17T12:59:17.245Z,24.00
2018-09-17T13:01:45.604Z,24.10
2018-09-17T13:04:13.985Z,24.10
2018-09-17T13:06:42.335Z,24.20
2018-09-17T13:09:11.623Z,24.20
2018-09-17T13:11:40.361Z,24.20
2018-09-17T13:14:08.765Z,24.30
2018-09-17T13:16:38.884Z,24.30
2018-09-17T13:19:08.632Z,24.40
2018-09-17T13:21:37.012Z,24.40
2018-09-17T13:24:06.008Z,24.50
2018-09-17T13:26:35.484Z,24.60
2018-09-17T13:29:03.856Z,24.70
2018-09-17T13:31:32.673Z,24.70
2018-09-17T13:34:01.004Z,24.70
2018-09-17T13:36:29.413Z,24.70
2018-09-17T13:38:57.828Z,24.70
2018-09-17T13:41:26.201Z,24.70
2018-09-17T13:43:54.557Z,24.60
2018-09-17T13:46:23.000Z,24.60
2018-09-17T13:48:51.349Z,24.60
2018-09-17T13:51:19.725Z,24.60
2018-09-17T13:53:48.100Z,24.50
2018-09-17T13:56:16.506Z,24.50
2018-09-17T13:58:44.922Z,24.50
2018-09-17T14:01:13.279Z,24.50
2018-09-17T14:03:41.645Z,24.50
2018-09-17T14:06:10.036Z,24.50
2018-09-17T14:08:38.377Z,24.50
2018-09-17T14:11:06.761Z,24.60
2018-09-17T14:13:35.109Z,24.60
2018-09-17T14:16:07.321Z,24.60
2018-09-17T14:18:36.160Z,24.60
2018-09-17T14:21:04.674Z,24.60
2018-09-17T14:23:33.060Z,24.60
2018-09-17T14:26:01.521Z,24.60
2018-09-17T14:28:29.817Z,24.70
2018-09-17T14:30:58.247Z,24.70
2018-09-17T14:33:31.918Z,24.70
2018-09-17T14:36:00.314Z,24.60
2018-09-17T14:38:28.669Z,24.60
2018-09-17T14:40:57.060Z,24.60
2018-09-17T14:43:25.419Z,24.50
2018-09-17T14:45:53.796Z,24.50
2018-09-17T14:48:22.141Z,24.50
2018-09-17T14:50:50.520Z,24.50
2018-09-17T14:53:18.940Z,24.50
2018-09-17T14:55:47.330Z,24.50
2018-09-17T14:58:15.702Z,24.40
2018-09-17T15:00:44.133Z,24.40
2018-09-17T15:03:12.549Z,24.40
2018-09-17T15:05:40.891Z,24.40
2018-09-17T15:08:09.444Z,24.40
2018-09-17T15:10:37.732Z,24.40
2018-09-17T15:13:06.197Z,24.40
2018-09-17T15:15:38.804Z,24.40
2018-09-17T15:18:07.163Z,24.40
2018-09-17T15:20:35.577Z,24.40
2018-09-17T15:23:03.925Z,24.40
2018-09-17T15:25:32.337Z,24.40
2018-09-17T15:28:00.754Z,24.40
2018-09-17T15:30:29.061Z,24.40
2018-09-17T15:32:57.497Z,24.30
2018-09-17T15:35:25.861Z,24.30
2018-09-17T15:37:54.334Z,24.30
2018-09-17T15:40:22.808Z,24.30
2018-09-17T15:42:51.127Z,24.30
2018-09-17T15:45:19.553Z,24.30
2018-09-17T15:47:47.925Z,24.30
2018-09-17T15:50:16.300Z,24.30
2018-09-17T15:52:44.671Z,24.20
2018-09-17T15:55:13.013Z,24.20
2018-09-17T15:57:41.486Z,24.20
2018-09-17T16:00:09.826Z,24.10
2018-09-17T16:02:38.278Z,24.20
2018-09-17T16:05:06.843Z,24.10
2018-09-17T16:07:35.248Z,24.10
2018-09-17T16:10:03.704Z,24.10
2018-09-17T16:12:32.109Z,24.10
2018-09-17T16:15:00.463Z,24.10
2018-09-17T16:17:28.844Z,24.10
2018-09-17T16:19:57.216Z,24.10
2018-09-17T16:22:25.648Z,24.00
2018-09-17T16:24:54.045Z,24.00
2018-09-17T16:27:22.423Z,24.00
2018-09-17T16:29:50.864Z,24.00
2018-09-17T16:32:19.239Z,24.00
2018-09-17T16:34:47.662Z,23.90
2018-09-17T16:37:16.040Z,23.90
2018-09-17T16:39:44.389Z,23.90
2018-09-17T16:42:12.767Z,23.80
2018-09-17T16:44:41.111Z,23.80
2018-09-17T16:47:09.540Z,23.70
2018-09-17T16:49:37.867Z,23.70
2018-09-17T16:52:06.228Z,23.60
2018-09-17T16:54:34.613Z,23.60
2018-09-17T16:57:02.945Z,23.50
2018-09-17T16:59:31.317Z,23.50
2018-09-17T17:01:59.721Z,23.40
2018-09-17T17:04:28.116Z,23.40
2018-09-17T17:06:56.459Z,23.30
2018-09-17T17:09:24.832Z,23.20
2018-09-17T17:11:53.207Z,23.20
2018-09-17T17:14:21.568Z,23.10
2018-09-17T17:16:50.064Z,23.10
2018-09-17T17:19:18.451Z,22.90
2018-09-17T17:21:46.924Z,22.90
2018-09-17T17:24:15.359Z,22.80
2018-09-17T17:26:43.697Z,22.70
2018-09-17T17:29:12.091Z,22.60
2018-09-17T17:31:40.445Z,22.50
2018-09-17T17:34:08.848Z,22.30
2018-09-17T17:36:37.208Z,22.10
2018-09-17T17:39:07.884Z,22.00
2018-09-17T17:41:36.259Z,21.90
2018-09-17T17:44:04.676Z,21.80
2018-09-17T17:46:33.369Z,21.70
2018-09-17T17:49:01.780Z,21.60
2018-09-17T17:51:30.129Z,21.50
2018-09-17T17:53:58.555Z,21.30
2018-09-17T17:56:26.915Z,21.20
2018-09-17T17:58:55.329Z,21.10
2018-09-17T18:01:23.723Z,21.00
2018-09-17T18:03:52.182Z,20.90
2018-09-17T18:06:20.494Z,20.80
2018-09-17T18:08:48.955Z,20.70
2018-09-17T18:11:17.327Z,20.50
2018-09-17T18:13:45.984Z,20.40
2018-09-17T18:16:14.378Z,20.30
2018-09-17T18:18:42.804Z,20.20
2018-09-17T18:21:11.223Z,20.20
2018-09-17T18:23:39.637Z,20.10
2018-09-17T18:26:08.005Z,20.00
2018-09-17T18:28:36.500Z,19.80
2018-09-17T18:31:04.928Z,19.70
2018-09-17T18:33:33.348Z,19.60
2018-09-17T18:36:01.707Z,19.60
2018-09-17T18:38:30.092Z,19.50
2018-09-17T18:40:58.476Z,19.40
2018-09-17T18:43:26.828Z,19.30
2018-09-17T18:45:55.228Z,19.20
2018-09-17T18:48:23.713Z,19.10
2018-09-17T18:50:52.041Z,19.10
2018-09-17T18:53:20.389Z,19.00
2018-09-17T18:55:48.784Z,18.90
2018-09-17T18:58:17.228Z,18.90
2018-09-17T19:00:45.620Z,18.80
2018-09-17T19:03:14.064Z,18.70
2018-09-17T19:05:42.511Z,18.60
2018-09-17T19:08:10.882Z,18.60
2018-09-17T19:10:39.314Z,18.50
2018-09-17T19:13:07.682Z,18.40
2018-09-17T19:15:41.347Z,18.30
2018-09-17T19:18:15.160Z,18.30
2018-09-17T19:20:43.794Z,18.10
2018-09-17T19:23:17.391Z,18.00
2018-09-17T19:25:45.780Z,17.80
2018-09-17T19:28:19.658Z,17.70
2018-09-17T19:30:47.984Z,17.60
2018-09-17T19:33:16.312Z,17.50
2018-09-17T19:35:44.712Z,17.50
2018-09-17T19:38:18.357Z,17.40
2018-09-17T19:40:46.733Z,17.30
2018-09-17T19:43:15.090Z,17.20
2018-09-17T19:45:48.887Z,17.10
2018-09-17T19:48:17.300Z,17.10
2018-09-17T19:50:50.908Z,17.00
2018-09-17T19:53:19.248Z,17.00
2018-09-17T19:55:48.219Z,16.90
2018-09-17T19:58:21.939Z,16.90
2018-09-17T20:00:50.640Z,16.80
2018-09-17T20:03:19.004Z,16.70
2018-09-17T20:05:52.601Z,16.60
2018-09-17T20:08:20.932Z,16.50
2018-09-17T20:10:49.364Z,16.40
2018-09-17T20:13:17.717Z,16.40
2018-09-17T20:15:46.104Z,16.30
2018-09-17T20:18:14.486Z,16.30
2018-09-17T20:20:42.962Z,16.20
2018-09-17T20:23:11.324Z,16.10
2018-09-17T20:25:39.680Z,16.10
2018-09-17T20:28:08.071Z,16.10
2018-09-17T20:30:36.453Z,16.00
2018-09-17T20:33:04.845Z,16.00
2018-09-17T20:35:33.320Z,16.00
2018-09-17T20:38:01.672Z,16.00
2018-09-17T20:40:30.030Z,15.90
2018-09-17T20:42:58.398Z,15.80
2018-09-17T20:45:26.732Z,15.70
2018-09-17T20:47:55.136Z,15.70
2018-09-17T20:50:23.525Z,15.60
2018-09-17T20:52:51.900Z,15.60
2018-09-17T20:55:20.459Z,15.50
2018-09-17T20:57:48.824Z,15.40
2018-09-17T21:00:17.191Z,15.40
2018-09-17T21:02:45.637Z,15.30
2018-09-17T21:05:13.995Z,15.30
2018-09-17T21:07:42.396Z,15.20
2018-09-17T21:10:10.745Z,15.20
2018-09-17T21:12:39.199Z,15.20
2018-09-17T21:15:07.550Z,15.20
2018-09-17T21:17:35.929Z,15.10
2018-09-17T21:20:04.290Z,15.10
2018-09-17T21:22:32.786Z,15.10
2018-09-17T21:25:01.163Z,15.10
2018-09-17T21:27:29.530Z,15.00
2018-09-17T21:29:57.877Z,15.00
2018-09-17T21:32:26.247Z,14.90
2018-09-17T21:34:54.623Z,14.80
2018-09-17T21:37:23.112Z,14.70
2018-09-17T21:39:51.410Z,14.70
2018-09-17T21:42:19.788Z,14.60
2018-09-17T21:44:48.120Z,14.60
2018-09-17T21:47:16.575Z,14.50
2018-09-17T21:49:44.919Z,14.50
2018-09-17T21:52:13.293Z,14.40
2018-09-17T21:54:41.677Z,14.40
2018-09-17T21:57:10.063Z,14.30
2018-09-17T21:59:38.434Z,14.30
2018-09-17T22:02:06.937Z,14.20
2018-09-17T22:04:35.293Z,14.20
2018-09-17T22:07:03.681Z,14.20
2018-09-17T22:09:32.024Z,14.10
2018-09-17T22:12:00.400Z,14.10
2018-09-17T22:14:28.748Z,14.10
2018-09-17T22:16:57.129Z,14.00
2018-09-17T22:19:25.531Z,14.00
2018-09-17T22:21:53.934Z,14.00
2018-09-17T22:24:22.339Z,14.00
2018-09-17T22:26:50.759Z,14.00
2018-09-17T22:29:19.145Z,13.90
2018-09-17T22:31:47.506Z,13.90
2018-09-17T22:34:15.889Z,13.80
2018-09-17T22:36:44.279Z,13.80
2018-09-17T22:39:12.946Z,13.80
2018-09-17T22:41:41.287Z,13.70
2018-09-17T22:44:09.676Z,13.70
2018-09-17T22:46:38.012Z,13.60
2018-09-17T22:49:06.903Z,13.60
2018-09-17T22:51:35.271Z,13.60
2018-09-17T22:54:03.680Z,13.60
2018-09-17T22:56:32.028Z,13.60
2018-09-17T22:59:00.441Z,13.60
2018-09-17T23:01:28.806Z,13.60
2018-09-17T23:03:57.189Z,13.60
2018-09-17T23:06:25.589Z,13.50
2018-09-17T23:08:53.997Z,13.50
2018-09-17T23:11:22.348Z,13.50
2018-09-17T23:13:50.743Z,13.40
2018-09-17T23:16:19.100Z,13.30
2018-09-17T23:18:47.496Z,13.20
2018-09-17T23:21:15.846Z,13.20
2018-09-17T23:23:44.222Z,13.10
2018-09-17T23:26:12.572Z,13.10
2018-09-17T23:28:41.007Z,13.10
2018-09-17T23:31:09.357Z,13.10
2018-09-17T23:33:37.736Z,13.10
2018-09-17T23:36:06.812Z,13.10
2018-09-17T23:38:35.196Z,13.00
2018-09-17T23:41:03.544Z,13.00
2018-09-17T23:43:31.948Z,13.00
2018-09-17T23:46:00.284Z,13.00
2018-09-17T23:48:28.663Z,13.00
2018-09-17T23:50:57.006Z,13.00
2018-09-17T23:53:25.437Z,13.00
2018-09-17T23:55:53.856Z,13.00
2018-09-17T23:58:22.234Z,13.00
